Terminal Aerodrome Forecast
Issued by NWS Norman, OK

Home | Current Version | Previous Version | Text Only | Print | Product List | Glossary On
Versions: 1 2 3 4 5 6 7 8 9 10 11 12 13 14 15 16 17 18 19 20 21 22 23 24 25 26 27 28 29 30 31
000
FTUS44 KOUN 200402 AAA
TAFOKC
TAF AMD
KOKC 200402Z 2004/2024 00000KT P6SM SCT012 OVC025
     FM200700 14003KT P6SM OVC012
     FM201100 19005KT 6SM BR OVC008
     FM201900 18008KT P6SM BKN015=

USA.gov is the U.S. government's official web portal to all federal, state and local government web resources and services.